This is the latest recevied weather packets stored in our database for station/object KK4XZ. If no packets are shown the sender has not sent any weather packets the latest 10 day(s).
| Time | Temp. | Humidity | Pressure | Rain* | Wind** | Luminosity | Snow |
|---|---|---|---|---|---|---|---|
| 1777904721 | 20.56° C | 57% | 1018.3 hPa | 0 mm | - | - | - |
| 1777904136 | 21.11° C | 54% | 1018.3 hPa | 0 mm | - | - | - |
| 1777903531 | 21.11° C | 58% | 1018.3 hPa | 0 mm | - | - | - |
| 1777902927 | 20° C | 57% | 1018.5 hPa | 0 mm | - | - | - |
| 1777902322 | 20.56° C | 59% | 1018.3 hPa | 0 mm | - | - | - |
| 1777901717 | 20° C | 61% | 1018.5 hPa | 0 mm | - | - | - |
| 1777901132 | 19.44° C | 63% | 1018.6 hPa | 0 mm | - | - | - |
| 1777900528 | 18.89° C | 67% | 1018.6 hPa | 0 mm | - | - | - |
| 1777899923 | 17.78° C | 74% | 1018.6 hPa | 0 mm | - | - | - |
| 1777899318 | 16.67° C | 82% | 1018.5 hPa | 0 mm | - | - | - |
| 1777898733 | 15.56° C | 89% | 1018.4 hPa | 0 mm | - | - | - |
| 1777898128 | 15° C | 92% | 1018.4 hPa | 0 mm | - | - | - |
| 1777897524 | 13.89° C | 94% | 1018.3 hPa | 0 mm | - | - | - |
| 1777896919 | 12.78° C | 95% | 1018.3 hPa | 0 mm | - | - | - |
| 1777896334 | 12.22° C | 95% | 1018.4 hPa | 0 mm | - | - | - |
| 1777895729 | 11.67° C | 95% | 1018.5 hPa | 0 mm | - | - | - |
| 1777895124 | 11.11° C | 96% | 1018.4 hPa | 0 mm | - | - | - |
| 1777894519 | 10.56° C | 96% | 1018.5 hPa | 0 mm | - | - | - |
| 1777893935 | 10° C | 96% | 1018.5 hPa | 0 mm | - | - | - |
| 1777893330 | 10° C | 96% | 1018.5 hPa | 0 mm | - | - | - |
| 1777892725 | 10° C | 96% | 1018.5 hPa | 0 mm | - | - | - |
| 1777892120 | 10° C | 95% | 1018.5 hPa | 0 mm | - | - | - |
| 1777891536 | 10° C | 95% | 1018.3 hPa | 0 mm | - | - | - |
| 1777890931 | 10° C | 95% | 1018.3 hPa | 0 mm | - | - | - |
| 1777890326 | 10° C | 95% | 1018.1 hPa | 0 mm | - | - | - |
* Rain latest hour (hover to see other rain measurements)
** Current wind speed in m/s (hover to see current wind gust speed)